sensor_id;sensor_type;location;lat;lon;timestamp;pressure;altitude;pressure_sealevel;temperature;humidity
51249;BME280;39642;47.556;18.728;2022-11-21T00:00:24;98991.50;;;21.42;33.27
51249;BME280;39642;47.556;18.728;2022-11-21T00:02:50;98984.53;;;21.41;33.28
51249;BME280;39642;47.556;18.728;2022-11-21T00:05:16;98973.81;;;21.43;33.70
51249;BME280;39642;47.556;18.728;2022-11-21T00:07:42;98972.97;;;21.42;33.50
51249;BME280;39642;47.556;18.728;2022-11-21T00:10:13;98969.47;;;21.42;32.92
51249;BME280;39642;47.556;18.728;2022-11-21T00:12:39;98972.97;;;21.42;33.39
51249;BME280;39642;47.556;18.728;2022-11-21T00:15:05;98969.38;;;21.44;33.51
51249;BME280;39642;47.556;18.728;2022-11-21T00:17:31;98975.50;;;21.44;33.32
51249;BME280;39642;47.556;18.728;2022-11-21T00:19:57;98978.03;;;21.46;32.99
51249;BME280;39642;47.556;18.728;2022-11-21T00:22:23;98975.38;;;21.46;33.24
51249;BME280;39642;47.556;18.728;2022-11-21T00:24:49;98968.28;;;21.46;33.10
51249;BME280;39642;47.556;18.728;2022-11-21T00:27:14;98967.31;;;21.47;33.37
51249;BME280;39642;47.556;18.728;2022-11-21T00:29:40;98960.22;;;21.48;33.10
51249;BME280;39642;47.556;18.728;2022-11-21T00:32:06;98947.84;;;21.48;33.37
51249;BME280;39642;47.556;18.728;2022-11-21T00:34:32;98944.31;;;21.48;33.07
51249;BME280;39642;47.556;18.728;2022-11-21T00:36:58;98955.78;;;21.48;33.12
51249;BME280;39642;47.556;18.728;2022-11-21T00:39:24;98955.78;;;21.48;33.13
51249;BME280;39642;47.556;18.728;2022-11-21T00:41:50;98946.97;;;21.48;32.94
51249;BME280;39642;47.556;18.728;2022-11-21T00:44:15;98940.84;;;21.47;32.98
51249;BME280;39642;47.556;18.728;2022-11-21T00:46:41;98938.28;;;21.46;33.02
51249;BME280;39642;47.556;18.728;2022-11-21T00:49:07;98931.22;;;21.46;33.18
51249;BME280;39642;47.556;18.728;2022-11-21T00:51:33;98918.91;;;21.45;33.03
51249;BME280;39642;47.556;18.728;2022-11-21T00:53:59;98928.69;;;21.45;33.03
51249;BME280;39642;47.556;18.728;2022-11-21T00:56:25;98927.84;;;21.44;32.99
51249;BME280;39642;47.556;18.728;2022-11-21T00:58:50;98914.69;;;21.42;33.06
51249;BME280;39642;47.556;18.728;2022-11-21T01:01:16;98911.13;;;21.44;32.95
51249;BME280;39642;47.556;18.728;2022-11-21T01:03:42;98910.25;;;21.43;32.89
51249;BME280;39642;47.556;18.728;2022-11-21T01:06:12;98908.56;;;21.42;33.04
51249;BME280;39642;47.556;18.728;2022-11-21T01:08:40;98895.44;;;21.40;32.76
51249;BME280;39642;47.556;18.728;2022-11-21T01:11:09;98892.78;;;21.40;33.19
51249;BME280;39642;47.556;18.728;2022-11-21T01:13:36;98900.62;;;21.42;33.12
51249;BME280;39642;47.556;18.728;2022-11-21T01:16:06;98890.13;;;21.40;32.82
51249;BME280;39642;47.556;18.728;2022-11-21T01:18:33;98894.56;;;21.40;33.40
51249;BME280;39642;47.556;18.728;2022-11-21T01:21:14;98897.13;;;21.41;33.27
51249;BME280;39642;47.556;18.728;2022-11-21T01:23:40;98908.56;;;21.42;33.21
51249;BME280;39642;47.556;18.728;2022-11-21T01:26:09;98893.50;;;21.42;32.84
51249;BME280;39642;47.556;18.728;2022-11-21T01:28:35;98896.06;;;21.44;32.88
51249;BME280;39642;47.556;18.728;2022-11-21T01:31:13;98892.44;;;21.45;32.77
51249;BME280;39642;47.556;18.728;2022-11-21T01:33:40;98893.28;;;21.46;32.29
51249;BME280;39642;47.556;18.728;2022-11-21T01:36:14;98896.78;;;21.46;33.14
51249;BME280;39642;47.556;18.728;2022-11-21T01:38:42;98894.00;;;21.48;32.67
51249;BME280;39642;47.556;18.728;2022-11-21T01:41:10;98897.50;;;21.48;32.82
51249;BME280;39642;47.556;18.728;2022-11-21T01:43:37;98896.53;;;21.49;32.71
51249;BME280;39642;47.556;18.728;2022-11-21T01:46:09;98901.84;;;21.49;32.66
51249;BME280;39642;47.556;18.728;2022-11-21T01:48:40;98901.72;;;21.51;32.93
51249;BME280;39642;47.556;18.728;2022-11-21T01:53:45;98908.81;;;21.50;32.64
51249;BME280;39642;47.556;18.728;2022-11-21T01:56:13;98900.16;;;21.48;32.71
51249;BME280;39642;47.556;18.728;2022-11-21T01:58:41;98901.94;;;21.48;32.72
51249;BME280;39642;47.556;18.728;2022-11-21T02:01:08;98901.94;;;21.48;32.84
51249;BME280;39642;47.556;18.728;2022-11-21T02:03:36;98896.78;;;21.46;32.65
51249;BME280;39642;47.556;18.728;2022-11-21T02:06:05;98901.22;;;21.46;32.54
51249;BME280;39642;47.556;18.728;2022-11-21T02:08:32;98902.19;;;21.45;32.81
51249;BME280;39642;47.556;18.728;2022-11-21T02:13:42;98895.22;;;21.44;32.68
51249;BME280;39642;47.556;18.728;2022-11-21T02:16:08;98890.88;;;21.42;32.86
51249;BME280;39642;47.556;18.728;2022-11-21T02:18:34;98892.69;;;21.42;32.70
51249;BME280;39642;47.556;18.728;2022-11-21T02:21:37;98899.78;;;21.41;32.42
51249;BME280;39642;47.556;18.728;2022-11-21T02:24:16;98894.56;;;21.40;32.75
51249;BME280;39642;47.556;18.728;2022-11-21T02:26:47;98893.63;;;21.41;32.67
51249;BME280;39642;47.556;18.728;2022-11-21T02:29:13;98897.22;;;21.40;32.77
51249;BME280;39642;47.556;18.728;2022-11-21T02:31:39;98890.13;;;21.40;32.71
51249;BME280;39642;47.556;18.728;2022-11-21T02:34:05;98889.28;;;21.40;32.56
51249;BME280;39642;47.556;18.728;2022-11-21T02:39:05;98890.97;;;21.41;32.69
51249;BME280;39642;47.556;18.728;2022-11-21T02:41:33;98887.38;;;21.42;32.10
51249;BME280;39642;47.556;18.728;2022-11-21T02:44:14;98894.34;;;21.43;32.18
51249;BME280;39642;47.556;18.728;2022-11-21T02:46:50;98896.06;;;21.44;32.77
51249;BME280;39642;47.556;18.728;2022-11-21T02:52:20;98897.63;;;21.47;32.52
51249;BME280;39642;47.556;18.728;2022-11-21T02:54:46;98894.00;;;21.48;32.81
51249;BME280;39642;47.556;18.728;2022-11-21T02:57:12;98903.75;;;21.47;32.66
51249;BME280;39642;47.556;18.728;2022-11-21T02:59:38;98905.31;;;21.50;32.66
51249;BME280;39642;47.556;18.728;2022-11-21T03:02:04;98907.12;;;21.49;32.80
51249;BME280;39642;47.556;18.728;2022-11-21T03:04:30;98906.16;;;21.50;32.42
51249;BME280;39642;47.556;18.728;2022-11-21T03:06:55;98897.50;;;21.48;32.71
51249;BME280;39642;47.556;18.728;2022-11-21T03:09:21;98902.81;;;21.48;32.57
51249;BME280;39642;47.556;18.728;2022-11-21T03:11:47;98897.50;;;21.48;32.56
51249;BME280;39642;47.556;18.728;2022-11-21T03:14:13;98892.22;;;21.48;32.53
51249;BME280;39642;47.556;18.728;2022-11-21T03:16:39;98887.87;;;21.47;31.78
51249;BME280;39642;47.556;18.728;2022-11-21T03:19:05;98883.53;;;21.46;32.38
51249;BME280;39642;47.556;18.728;2022-11-21T03:21:31;98892.44;;;21.45;32.41
51249;BME280;39642;47.556;18.728;2022-11-21T03:23:56;98887.13;;;21.45;32.36
51249;BME280;39642;47.556;18.728;2022-11-21T03:26:22;98884.62;;;21.44;32.90
51249;BME280;39642;47.556;18.728;2022-11-21T03:28:48;98892.56;;;21.44;32.76
51249;BME280;39642;47.556;18.728;2022-11-21T03:31:14;98893.50;;;21.42;32.39
51249;BME280;39642;47.556;18.728;2022-11-21T03:33:40;98884.72;;;21.42;32.64
51249;BME280;39642;47.556;18.728;2022-11-21T03:36:06;98890.97;;;21.41;32.26
51249;BME280;39642;47.556;18.728;2022-11-21T03:38:32;98883.91;;;21.41;32.79
51249;BME280;39642;47.556;18.728;2022-11-21T03:41:02;98884.84;;;21.40;32.65
51249;BME280;39642;47.556;18.728;2022-11-21T03:43:28;98880.37;;;21.41;32.61
51249;BME280;39642;47.556;18.728;2022-11-21T03:45:54;98885.78;;;21.39;32.26
51249;BME280;39642;47.556;18.728;2022-11-21T03:48:20;98871.59;;;21.40;31.97
51249;BME280;39642;47.556;18.728;2022-11-21T03:50:45;98870.72;;;21.40;32.62
51249;BME280;39642;47.556;18.728;2022-11-21T03:53:11;98875.94;;;21.41;32.94
51249;BME280;39642;47.556;18.728;2022-11-21T03:55:37;98866.19;;;21.42;32.19
51249;BME280;39642;47.556;18.728;2022-11-21T03:58:03;98861.72;;;21.42;32.24
51249;BME280;39642;47.556;18.728;2022-11-21T04:00:29;98863.44;;;21.44;32.63
51249;BME280;39642;47.556;18.728;2022-11-21T04:02:55;98861.62;;;21.44;32.53
51249;BME280;39642;47.556;18.728;2022-11-21T04:05:21;98851.75;;;21.46;32.43
51249;BME280;39642;47.556;18.728;2022-11-21T04:07:46;98851.75;;;21.46;31.81
51249;BME280;39642;47.556;18.728;2022-11-21T04:10:12;98852.50;;;21.48;32.20
51249;BME280;39642;47.556;18.728;2022-11-21T04:12:38;98850.78;;;21.47;32.39
51249;BME280;39642;47.556;18.728;2022-11-21T04:15:04;98854.16;;;21.49;32.21
51249;BME280;39642;47.556;18.728;2022-11-21T04:17:30;98847.19;;;21.48;32.27
51249;BME280;39642;47.556;18.728;2022-11-21T04:19:56;98840.91;;;21.49;32.10
51249;BME280;39642;47.556;18.728;2022-11-21T04:22:22;98839.25;;;21.48;32.35
51249;BME280;39642;47.556;18.728;2022-11-21T04:24:48;98832.00;;;21.50;32.64
51249;BME280;39642;47.556;18.728;2022-11-21T04:27:14;98832.12;;;21.49;32.28
51249;BME280;39642;47.556;18.728;2022-11-21T04:29:40;98833.09;;;21.48;32.14
51249;BME280;39642;47.556;18.728;2022-11-21T04:32:05;98832.25;;;21.47;32.26
51249;BME280;39642;47.556;18.728;2022-11-21T04:34:31;98828.75;;;21.47;32.32
51249;BME280;39642;47.556;18.728;2022-11-21T04:36:57;98820.94;;;21.45;32.12
51249;BME280;39642;47.556;18.728;2022-11-21T04:39:23;98823.56;;;21.45;32.21
51249;BME280;39642;47.556;18.728;2022-11-21T04:41:49;98819.25;;;21.44;32.34
51249;BME280;39642;47.556;18.728;2022-11-21T04:44:15;98821.91;;;21.44;32.48
51249;BME280;39642;47.556;18.728;2022-11-21T04:46:41;98817.56;;;21.43;32.54
51249;BME280;39642;47.556;18.728;2022-11-21T04:49:06;98807.94;;;21.42;32.12
51249;BME280;39642;47.556;18.728;2022-11-21T04:51:32;98817.69;;;21.41;32.55
51249;BME280;39642;47.556;18.728;2022-11-21T04:53:58;98815.12;;;21.40;32.54
51249;BME280;39642;47.556;18.728;2022-11-21T04:56:24;98816.00;;;21.40;32.39
51249;BME280;39642;47.556;18.728;2022-11-21T04:58:51;98818.63;;;21.40;32.16
51249;BME280;39642;47.556;18.728;2022-11-21T05:01:17;98811.63;;;21.39;32.21
51249;BME280;39642;47.556;18.728;2022-11-21T05:03:43;98802.00;;;21.38;32.54
51249;BME280;39642;47.556;18.728;2022-11-21T05:06:09;98809.94;;;21.38;32.03
51249;BME280;39642;47.556;18.728;2022-11-21T05:08:35;98793.31;;;21.36;31.46
51249;BME280;39642;47.556;18.728;2022-11-21T05:11:01;98796.84;;;21.37;31.70
51249;BME280;39642;47.556;18.728;2022-11-21T05:13:45;98795.84;;;21.38;31.52
51249;BME280;39642;47.556;18.728;2022-11-21T05:16:11;98792.22;;;21.39;30.97
51249;BME280;39642;47.556;18.728;2022-11-21T05:18:37;98791.28;;;21.40;31.02
51249;BME280;39642;47.556;18.728;2022-11-21T05:21:03;98777.97;;;21.41;30.78
51249;BME280;39642;47.556;18.728;2022-11-21T05:23:29;98779.63;;;21.42;30.62
51249;BME280;39642;47.556;18.728;2022-11-21T05:25:55;98767.13;;;21.45;30.52
51249;BME280;39642;47.556;18.728;2022-11-21T05:28:20;98767.84;;;21.47;30.50
51249;BME280;39642;47.556;18.728;2022-11-21T05:30:46;98766.87;;;21.48;30.41
51249;BME280;39642;47.556;18.728;2022-11-21T05:33:12;98776.38;;;21.50;30.41
51249;BME280;39642;47.556;18.728;2022-11-21T05:35:38;98770.12;;;21.51;30.48
51249;BME280;39642;47.556;18.728;2022-11-21T05:38:04;98773.50;;;21.53;30.24
51249;BME280;39642;47.556;18.728;2022-11-21T05:40:30;98779.53;;;21.55;30.37
51249;BME280;39642;47.556;18.728;2022-11-21T05:42:56;98788.19;;;21.57;31.08
51249;BME280;39642;47.556;18.728;2022-11-21T05:45:40;98796.00;;;21.59;35.22
51249;BME280;39642;47.556;18.728;2022-11-21T05:48:06;98793.00;;;21.63;34.76
51249;BME280;39642;47.556;18.728;2022-11-21T05:50:34;98788.41;;;21.66;35.10
51249;BME280;39642;47.556;18.728;2022-11-21T05:53:02;98789.13;;;21.68;32.52
51249;BME280;39642;47.556;18.728;2022-11-21T05:55:28;98784.56;;;21.70;31.64
51249;BME280;39642;47.556;18.728;2022-11-21T05:57:57;98794.22;;;21.71;31.84
51249;BME280;39642;47.556;18.728;2022-11-21T06:00:23;98786.97;;;21.73;31.87
51249;BME280;39642;47.556;18.728;2022-11-21T06:02:49;98796.59;;;21.74;31.65
51249;BME280;39642;47.556;18.728;2022-11-21T06:05:34;98803.56;;;21.75;31.77
51249;BME280;39642;47.556;18.728;2022-11-21T06:07:59;98795.53;;;21.76;31.97
51249;BME280;39642;47.556;18.728;2022-11-21T06:10:25;98798.06;;;21.78;33.32
51249;BME280;39642;47.556;18.728;2022-11-21T06:12:51;98796.25;;;21.78;32.46
51249;BME280;39642;47.556;18.728;2022-11-21T06:15:17;98806.72;;;21.80;32.06
51249;BME280;39642;47.556;18.728;2022-11-21T06:17:43;98806.72;;;21.80;31.94
51249;BME280;39642;47.556;18.728;2022-11-21T06:20:09;98806.72;;;21.80;32.22
51249;BME280;39642;47.556;18.728;2022-11-21T06:22:35;98807.56;;;21.80;32.57
51249;BME280;39642;47.556;18.728;2022-11-21T06:25:01;98809.22;;;21.81;33.46
51249;BME280;39642;47.556;18.728;2022-11-21T06:27:28;98819.72;;;21.83;35.28
51249;BME280;39642;47.556;18.728;2022-11-21T06:29:54;98812.59;;;21.83;36.18
51249;BME280;39642;47.556;18.728;2022-11-21T06:32:20;98830.06;;;21.86;37.52
51249;BME280;39642;47.556;18.728;2022-11-21T06:34:45;98834.53;;;21.86;36.06
51249;BME280;39642;47.556;18.728;2022-11-21T06:37:11;98837.19;;;21.86;35.40
51249;BME280;39642;47.556;18.728;2022-11-21T06:39:37;98836.34;;;21.85;35.09
51249;BME280;39642;47.556;18.728;2022-11-21T06:42:03;98841.75;;;21.83;34.94
51249;BME280;39642;47.556;18.728;2022-11-21T06:44:29;98833.94;;;21.82;33.61
51249;BME280;39642;47.556;18.728;2022-11-21T06:46:55;98838.53;;;21.80;34.17
51249;BME280;39642;47.556;18.728;2022-11-21T06:49:21;98835.25;;;21.76;33.18
51249;BME280;39642;47.556;18.728;2022-11-21T06:51:47;98840.81;;;21.73;34.73
51249;BME280;39642;47.556;18.728;2022-11-21T06:54:13;98846.47;;;21.69;34.34
51249;BME280;39642;47.556;18.728;2022-11-21T06:56:39;98855.50;;;21.66;34.17
51249;BME280;39642;47.556;18.728;2022-11-21T06:59:05;98849.34;;;21.66;33.82
51249;BME280;39642;47.556;18.728;2022-11-21T07:01:31;98845.62;;;21.68;34.18
51249;BME280;39642;47.556;18.728;2022-11-21T07:03:56;98855.16;;;21.71;34.14
51249;BME280;39642;47.556;18.728;2022-11-21T07:06:22;98853.34;;;21.71;33.14
51249;BME280;39642;47.556;18.728;2022-11-21T07:08:52;98858.63;;;21.71;33.66
51249;BME280;39642;47.556;18.728;2022-11-21T07:11:22;98860.44;;;21.71;33.12
51249;BME280;39642;47.556;18.728;2022-11-21T07:13:48;98854.28;;;21.70;33.13
51249;BME280;39642;47.556;18.728;2022-11-21T07:16:14;98858.63;;;21.71;32.96
51249;BME280;39642;47.556;18.728;2022-11-21T07:18:40;98855.16;;;21.71;32.88
51249;BME280;39642;47.556;18.728;2022-11-21T07:21:08;98856.81;;;21.72;32.69
51249;BME280;39642;47.556;18.728;2022-11-21T07:23:35;98850.53;;;21.73;32.86
51249;BME280;39642;47.556;18.728;2022-11-21T07:26:10;98854.06;;;21.73;33.08
51249;BME280;39642;47.556;18.728;2022-11-21T07:59:38;98892.12;;;21.95;33.08
51249;BME280;39642;47.556;18.728;2022-11-21T08:02:05;98886.44;;;21.99;33.51
51249;BME280;39642;47.556;18.728;2022-11-21T08:18:16;98902.06;;;22.59;32.26
51249;BME280;39642;47.556;18.728;2022-11-21T08:20:45;98902.06;;;22.59;32.26
51249;BME280;39642;47.556;18.728;2022-11-21T08:23:11;98912.59;;;22.04;32.85
51249;BME280;39642;47.556;18.728;2022-11-21T08:25:39;98909.22;;;22.02;32.66
51249;BME280;39642;47.556;18.728;2022-11-21T08:28:07;98904.06;;;22.00;32.55
51249;BME280;39642;47.556;18.728;2022-11-21T08:30:34;98913.81;;;22.00;32.57
51249;BME280;39642;47.556;18.728;2022-11-21T08:33:01;98915.75;;;21.98;32.61
51249;BME280;39642;47.556;18.728;2022-11-21T08:35:27;98914.88;;;21.97;32.86
51249;BME280;39642;47.556;18.728;2022-11-21T08:37:55;98909.56;;;21.97;33.02
51249;BME280;39642;47.556;18.728;2022-11-21T08:40:23;98904.28;;;21.97;35.33
51249;BME280;39642;47.556;18.728;2022-11-21T08:43:00;98907.91;;;21.96;34.27
51249;BME280;39642;47.556;18.728;2022-11-21T08:45:27;98911.37;;;21.97;33.91
51249;BME280;39642;47.556;18.728;2022-11-21T08:47:54;98908.75;;;21.97;34.84
51249;BME280;39642;47.556;18.728;2022-11-21T08:50:21;98921.88;;;21.98;36.47
51249;BME280;39642;47.556;18.728;2022-11-21T08:52:48;98917.06;;;22.03;37.00
51249;BME280;39642;47.556;18.728;2022-11-21T09:12:22;98899.69;;;21.88;33.81
51249;BME280;39642;47.556;18.728;2022-11-21T09:14:49;98918.25;;;21.88;34.07
51249;BME280;39642;47.556;18.728;2022-11-21T09:17:34;98909.34;;;21.89;34.64
51249;BME280;39642;47.556;18.728;2022-11-21T09:20:18;98921.63;;;21.90;34.26
51249;BME280;39642;47.556;18.728;2022-11-21T09:22:44;98925.84;;;21.93;34.11
51249;BME280;39642;47.556;18.728;2022-11-21T09:25:15;98919.59;;;21.94;33.67
51249;BME280;39642;47.556;18.728;2022-11-21T09:27:41;98905.38;;;21.95;32.95
51249;BME280;39642;47.556;18.728;2022-11-21T09:30:07;98898.13;;;21.97;33.04
51249;BME280;39642;47.556;18.728;2022-11-21T09:32:33;98912.13;;;21.99;32.81
51249;BME280;39642;47.556;18.728;2022-11-21T09:34:59;98912.84;;;22.01;32.71
51249;BME280;39642;47.556;18.728;2022-11-21T09:37:25;98922.25;;;22.05;32.38
51249;BME280;39642;47.556;18.728;2022-11-21T09:39:51;98925.00;;;22.03;33.05
51249;BME280;39642;47.556;18.728;2022-11-21T09:45:09;98923.09;;;22.06;32.56
51249;BME280;39642;47.556;18.728;2022-11-21T09:47:42;98922.34;;;22.03;34.00
51249;BME280;39642;47.556;18.728;2022-11-21T09:55:51;98893.31;;;21.91;33.67
51249;BME280;39642;47.556;18.728;2022-11-21T10:00:50;98880.69;;;21.83;32.35
51249;BME280;39642;47.556;18.728;2022-11-21T10:03:17;98874.66;;;21.81;31.78
51249;BME280;39642;47.556;18.728;2022-11-21T10:05:50;98878.13;;;21.81;32.81
51249;BME280;39642;47.556;18.728;2022-11-21T10:08:27;98879.00;;;21.82;33.20
51249;BME280;39642;47.556;18.728;2022-11-21T10:20:07;98854.53;;;21.78;32.94
51249;BME280;39642;47.556;18.728;2022-11-21T10:25:25;98852.34;;;21.83;33.07
51249;BME280;39642;47.556;18.728;2022-11-21T10:27:57;98848.63;;;21.86;34.18
51249;BME280;39642;47.556;18.728;2022-11-21T10:30:26;98851.78;;;21.91;34.80
51249;BME280;39642;47.556;18.728;2022-11-21T10:32:55;98852.50;;;21.93;35.09
51249;BME280;39642;47.556;18.728;2022-11-21T10:35:29;98846.31;;;21.93;35.01
51249;BME280;39642;47.556;18.728;2022-11-21T10:38:00;98843.69;;;21.93;33.35
51249;BME280;39642;47.556;18.728;2022-11-21T10:40:36;98839.09;;;21.95;32.94
51249;BME280;39642;47.556;18.728;2022-11-21T10:43:07;98838.16;;;21.96;33.50
51249;BME280;39642;47.556;18.728;2022-11-21T10:45:53;98832.97;;;21.94;33.20
51249;BME280;39642;47.556;18.728;2022-11-21T10:48:19;98834.06;;;21.92;34.61
51249;BME280;39642;47.556;18.728;2022-11-21T10:51:10;98835.87;;;21.91;34.85
51249;BME280;39642;47.556;18.728;2022-11-21T10:53:42;98833.44;;;21.88;35.43
51249;BME280;39642;47.556;18.728;2022-11-21T10:56:26;98836.47;;;21.83;34.72
51249;BME280;39642;47.556;18.728;2022-11-21T10:58:54;98828.28;;;21.75;32.88
51249;BME280;39642;47.556;18.728;2022-11-21T11:01:23;98830.22;;;21.73;36.68
51249;BME280;39642;47.556;18.728;2022-11-21T11:06:38;98820.81;;;21.69;34.31
51249;BME280;39642;47.556;18.728;2022-11-21T11:09:04;98820.81;;;21.69;33.57
51249;BME280;39642;47.556;18.728;2022-11-21T11:11:32;98818.91;;;21.71;33.66
51249;BME280;39642;47.556;18.728;2022-11-21T11:14:04;98813.34;;;21.74;33.04
51249;BME280;39642;47.556;18.728;2022-11-21T11:16:34;98812.25;;;21.77;34.64
51249;BME280;39642;47.556;18.728;2022-11-21T11:19:06;98810.31;;;21.79;33.32
51249;BME280;39642;47.556;18.728;2022-11-21T11:27:03;98805.50;;;21.84;35.27
51249;BME280;39642;47.556;18.728;2022-11-21T11:29:31;98816.81;;;21.86;36.16
51249;BME280;39642;47.556;18.728;2022-11-21T11:32:16;98814.06;;;21.88;36.25
51249;BME280;39642;47.556;18.728;2022-11-21T11:34:58;98815.62;;;21.90;35.72
51249;BME280;39642;47.556;18.728;2022-11-21T11:37:58;98812.59;;;21.95;36.12
51249;BME280;39642;47.556;18.728;2022-11-21T11:40:33;98801.03;;;21.96;35.49
51249;BME280;39642;47.556;18.728;2022-11-21T11:43:18;98802.00;;;21.95;36.99
51249;BME280;39642;47.556;18.728;2022-11-21T11:46:33;98802.38;;;21.90;36.88
51249;BME280;39642;47.556;18.728;2022-11-21T11:51:55;98786.00;;;21.85;37.38
51249;BME280;39642;47.556;18.728;2022-11-21T11:54:30;98776.84;;;21.89;37.94
51249;BME280;39642;47.556;18.728;2022-11-21T11:56:59;98774.19;;;21.89;37.74
51249;BME280;39642;47.556;18.728;2022-11-21T11:59:30;98775.84;;;21.90;38.27
51249;BME280;39642;47.556;18.728;2022-11-21T12:04:47;98780.06;;;21.93;38.41
51249;BME280;39642;47.556;18.728;2022-11-21T12:07:21;98774.78;;;21.93;38.43
51249;BME280;39642;47.556;18.728;2022-11-21T12:09:55;98772.84;;;21.95;37.90
51249;BME280;39642;47.556;18.728;2022-11-21T12:12:34;98763.78;;;21.97;38.81
51249;BME280;39642;47.556;18.728;2022-11-21T12:15:12;98763.09;;;21.95;38.35
51249;BME280;39642;47.556;18.728;2022-11-21T12:20:41;98761.41;;;21.94;38.32
51249;BME280;39642;47.556;18.728;2022-11-21T12:23:11;98759.47;;;21.96;38.00
51249;BME280;39642;47.556;18.728;2022-11-21T12:26:03;98762.84;;;21.98;37.93
51249;BME280;39642;47.556;18.728;2022-11-21T12:28:58;98759.22;;;21.99;38.09
51249;BME280;39642;47.556;18.728;2022-11-21T12:42:45;98741.91;;;21.95;38.01
51249;BME280;39642;47.556;18.728;2022-11-21T12:53:48;98751.28;;;21.88;38.04
51249;BME280;39642;47.556;18.728;2022-11-21T12:56:43;98742.03;;;21.82;37.83
51249;BME280;39642;47.556;18.728;2022-11-21T12:59:13;98739.50;;;21.81;37.82
51249;BME280;39642;47.556;18.728;2022-11-21T13:02:21;98735.91;;;21.82;37.38
51249;BME280;39642;47.556;18.728;2022-11-21T13:04:49;98733.25;;;21.82;36.23
51249;BME280;39642;47.556;18.728;2022-11-21T13:07:17;98739.50;;;21.81;36.80
51249;BME280;39642;47.556;18.728;2022-11-21T13:09:47;98743.97;;;21.80;37.72
51249;BME280;39642;47.556;18.728;2022-11-21T13:12:27;98744.81;;;21.81;37.13
51249;BME280;39642;47.556;18.728;2022-11-21T13:15:07;98745.63;;;21.81;36.94
51249;BME280;39642;47.556;18.728;2022-11-21T13:17:40;98750.81;;;21.83;36.18
51249;BME280;39642;47.556;18.728;2022-11-21T13:20:18;98755.03;;;21.86;36.20
51249;BME280;39642;47.556;18.728;2022-11-21T13:30:49;98752.50;;;21.84;36.61
51249;BME280;39642;47.556;18.728;2022-11-21T13:36:08;98760.59;;;21.82;36.50
51249;BME280;39642;47.556;18.728;2022-11-21T13:44:48;98748.91;;;21.85;37.08
51249;BME280;39642;47.556;18.728;2022-11-21T13:53:14;98747.34;;;21.82;37.73
51249;BME280;39642;47.556;18.728;2022-11-21T13:56:34;98755.03;;;21.86;38.86
51249;BME280;39642;47.556;18.728;2022-11-21T13:59:05;98751.66;;;21.83;37.82
51249;BME280;39642;47.556;18.728;2022-11-21T14:01:47;98750.94;;;21.81;38.25
51249;BME280;39642;47.556;18.728;2022-11-21T14:07:28;98750.94;;;21.81;39.20
51249;BME280;39642;47.556;18.728;2022-11-21T14:09:57;98747.34;;;21.82;39.79
51249;BME280;39642;47.556;18.728;2022-11-21T14:18:03;98753.47;;;21.83;41.76
51249;BME280;39642;47.556;18.728;2022-11-21T14:20:49;98764.06;;;21.83;39.97
51249;BME280;39642;47.556;18.728;2022-11-21T14:23:18;98757.78;;;21.84;39.90
51249;BME280;39642;47.556;18.728;2022-11-21T14:25:48;98758.78;;;21.83;39.49
51249;BME280;39642;47.556;18.728;2022-11-21T14:28:25;98750.81;;;21.83;40.15
51249;BME280;39642;47.556;18.728;2022-11-21T14:31:06;98757.09;;;21.82;41.09
51249;BME280;39642;47.556;18.728;2022-11-21T14:33:34;98756.84;;;21.85;41.36
51249;BME280;39642;47.556;18.728;2022-11-21T14:36:03;98754.09;;;21.87;42.46
51249;BME280;39642;47.556;18.728;2022-11-21T14:38:39;98755.62;;;21.89;44.18
51249;BME280;39642;47.556;18.728;2022-11-21T14:41:25;98752.63;;;21.94;42.92
51249;BME280;39642;47.556;18.728;2022-11-21T14:46:44;98764.88;;;21.95;40.66
51249;BME280;39642;47.556;18.728;2022-11-21T14:51:41;98761.41;;;21.94;39.62
51249;BME280;39642;47.556;18.728;2022-11-21T14:54:22;98762.22;;;21.95;39.28
51249;BME280;39642;47.556;18.728;2022-11-21T14:56:59;98764.78;;;21.96;38.83
51249;BME280;39642;47.556;18.728;2022-11-21T14:59:30;98772.47;;;21.99;38.75
51249;BME280;39642;47.556;18.728;2022-11-21T15:02:02;98774.16;;;22.00;38.32
51249;BME280;39642;47.556;18.728;2022-11-21T15:04:33;98782.13;;;22.00;37.55
51249;BME280;39642;47.556;18.728;2022-11-21T15:07:01;98784.16;;;21.97;38.37
51249;BME280;39642;47.556;18.728;2022-11-21T15:09:27;98774.78;;;21.93;37.51
51249;BME280;39642;47.556;18.728;2022-11-21T15:12:06;98794.19;;;21.93;41.56
51249;BME280;39642;47.556;18.728;2022-11-21T15:15:02;98792.38;;;21.94;38.25
51249;BME280;39642;47.556;18.728;2022-11-21T15:17:31;98806.72;;;21.91;39.05
51249;BME280;39642;47.556;18.728;2022-11-21T15:22:37;98803.56;;;21.86;37.74
51249;BME280;39642;47.556;18.728;2022-11-21T15:27:35;98798.78;;;21.80;45.26
51249;BME280;39642;47.556;18.728;2022-11-21T15:32:29;98799.16;;;21.75;47.00
51249;BME280;39642;47.556;18.728;2022-11-21T15:34:55;98798.88;;;21.78;48.44
51249;BME280;39642;47.556;18.728;2022-11-21T15:37:21;98800.44;;;21.81;40.76
51249;BME280;39642;47.556;18.728;2022-11-21T15:39:50;98806.47;;;21.83;40.65
51249;BME280;39642;47.556;18.728;2022-11-21T15:44:58;98781.91;;;21.81;45.52
51249;BME280;39642;47.556;18.728;2022-11-21T15:47:24;98781.78;;;21.82;45.66
51249;BME280;39642;47.556;18.728;2022-11-21T15:49:49;98775.41;;;21.85;39.77
51249;BME280;39642;47.556;18.728;2022-11-21T15:52:15;98777.44;;;21.81;41.35
51249;BME280;39642;47.556;18.728;2022-11-21T15:54:41;98778.53;;;21.79;40.62
51249;BME280;39642;47.556;18.728;2022-11-21T15:57:08;98772.28;;;21.80;43.65
51249;BME280;39642;47.556;18.728;2022-11-21T15:59:34;98785.53;;;21.80;43.43
51249;BME280;39642;47.556;18.728;2022-11-21T16:02:00;98781.19;;;21.79;42.16